createdAt,value
2023-03-25T00:02:24.238Z,9.43
2023-03-25T00:06:27.029Z,9.43
2023-03-25T00:10:31.529Z,9.42
2023-03-25T00:14:34.199Z,9.38
2023-03-25T00:18:37.532Z,9.37
2023-03-25T00:22:44.005Z,9.32
2023-03-25T00:26:48.760Z,9.32
2023-03-25T00:30:53.498Z,9.33
2023-03-25T00:34:56.319Z,9.36
2023-03-25T00:38:59.152Z,9.35
2023-03-25T00:43:04.921Z,9.36
2023-03-25T00:47:07.657Z,9.36
2023-03-25T00:51:14.358Z,9.33
2023-03-25T00:55:18.444Z,9.35
2023-03-25T00:59:22.935Z,9.36
2023-03-25T01:03:26.679Z,9.37
2023-03-25T01:07:31.905Z,9.39
2023-03-25T01:11:35.722Z,9.36
2023-03-25T01:15:41.946Z,9.41
2023-03-25T01:19:45.318Z,9.41
2023-03-25T01:23:49.261Z,9.43
2023-03-25T01:27:52.002Z,9.39
2023-03-25T01:31:56.496Z,9.39
2023-03-25T01:35:59.742Z,9.39
2023-03-25T01:40:04.848Z,9.37
2023-03-25T01:44:09.674Z,9.43
2023-03-25T01:48:17.957Z,9.38
2023-03-25T01:52:24.743Z,9.41
2023-03-25T01:56:32.492Z,9.42
2023-03-25T02:00:35.316Z,9.41
2023-03-25T02:04:45.653Z,9.41
2023-03-25T02:08:49.167Z,9.45
2023-03-25T02:12:51.949Z,9.45
2023-03-25T02:17:04.109Z,9.43
2023-03-25T02:21:52.906Z,9.44
2023-03-25T02:26:27.463Z,9.47
2023-03-25T02:30:52.431Z,9.44
2023-03-25T02:35:22.561Z,9.46
2023-03-25T02:39:33.815Z,9.45
2023-03-25T02:43:43.310Z,9.43
2023-03-25T02:47:50.589Z,9.46
2023-03-25T02:51:59.430Z,9.50
2023-03-25T02:56:08.762Z,9.45
2023-03-25T03:00:15.712Z,9.46
2023-03-25T03:04:18.583Z,9.38
2023-03-25T03:08:33.522Z,9.35
2023-03-25T03:12:50.677Z,9.32
2023-03-25T03:17:03.828Z,9.27
2023-03-25T03:21:13.153Z,9.25
2023-03-25T03:25:25.026Z,9.26
2023-03-25T03:29:33.193Z,9.24
2023-03-25T03:33:41.866Z,9.20
2023-03-25T03:37:49.880Z,9.19
2023-03-25T03:41:56.114Z,9.14
2023-03-25T03:46:05.964Z,9.06
2023-03-25T03:50:12.688Z,9.02
2023-03-25T03:54:21.104Z,9.00
2023-03-25T03:58:28.510Z,9.00
2023-03-25T04:02:39.547Z,9.01
2023-03-25T04:06:46.753Z,9.00
2023-03-25T04:10:54.796Z,8.99
2023-03-25T04:15:00.853Z,8.99
2023-03-25T04:19:05.599Z,8.99
2023-03-25T04:23:09.822Z,8.94
2023-03-25T04:27:13.700Z,8.87
2023-03-25T04:31:18.124Z,8.77
2023-03-25T04:35:22.762Z,8.75
2023-03-25T04:39:25.644Z,8.79
2023-03-25T04:43:28.447Z,8.75
2023-03-25T04:47:31.177Z,8.75
2023-03-25T04:51:35.365Z,8.73
2023-03-25T04:55:38.031Z,8.70
2023-03-25T04:59:40.780Z,8.65
2023-03-25T05:03:43.421Z,8.67
2023-03-25T05:07:49.698Z,8.64
2023-03-25T05:11:55.951Z,8.66
2023-03-25T05:15:58.699Z,8.64
2023-03-25T05:20:01.372Z,8.69
2023-03-25T05:24:08.329Z,8.70
2023-03-25T05:28:13.941Z,8.72
2023-03-25T05:32:18.305Z,8.71
2023-03-25T05:36:20.951Z,8.71
2023-03-25T05:40:25.352Z,8.75
2023-03-25T05:44:28.097Z,8.75
2023-03-25T05:48:32.362Z,8.73
2023-03-25T05:52:36.502Z,8.78
2023-03-25T05:56:41.379Z,8.73
2023-03-25T06:00:44.402Z,8.68
2023-03-25T06:04:50.542Z,8.70
2023-03-25T06:08:53.957Z,8.69
2023-03-25T06:12:58.104Z,8.68
2023-03-25T06:17:00.739Z,8.69
2023-03-25T06:21:03.455Z,8.69
2023-03-25T06:25:07.348Z,8.77
2023-03-25T06:29:11.755Z,8.83
2023-03-25T06:33:14.999Z,8.81
2023-03-25T06:37:38.085Z,8.77
2023-03-25T06:41:46.804Z,8.75
2023-03-25T06:46:01.051Z,8.80
2023-03-25T06:50:20.654Z,8.84
2023-03-25T06:54:23.522Z,8.84
2023-03-25T06:58:34.493Z,8.85
2023-03-25T07:02:38.787Z,8.89
2023-03-25T07:06:42.069Z,8.88
2023-03-25T07:10:44.750Z,8.90
2023-03-25T07:14:52.086Z,8.83
2023-03-25T07:18:56.787Z,8.82
2023-03-25T07:22:59.549Z,8.83
2023-03-25T07:27:02.283Z,8.80
2023-03-25T07:31:08.282Z,8.87
2023-03-25T07:35:12.774Z,8.89
2023-03-25T07:39:15.557Z,8.89
2023-03-25T07:43:18.372Z,8.95
2023-03-25T07:47:40.869Z,9.02
2023-03-25T07:51:46.088Z,9.01
2023-03-25T07:55:50.936Z,9.09
2023-03-25T07:59:53.940Z,9.12
2023-03-25T08:03:56.739Z,9.18
2023-03-25T08:08:01.022Z,9.39
2023-03-25T08:12:03.762Z,9.46
2023-03-25T08:16:11.930Z,9.59
2023-03-25T08:20:14.769Z,9.64
2023-03-25T08:24:18.814Z,9.56
2023-03-25T08:28:23.405Z,9.49
2023-03-25T08:32:27.868Z,9.39
2023-03-25T08:36:30.625Z,9.32
2023-03-25T08:40:34.977Z,9.27
2023-03-25T08:44:37.940Z,9.25
2023-03-25T08:48:41.104Z,9.22
2023-03-25T08:52:43.833Z,9.16
2023-03-25T08:56:48.021Z,9.04
2023-03-25T09:00:53.410Z,9.02
2023-03-25T09:04:56.289Z,9.00
2023-03-25T09:09:00.346Z,8.99
2023-03-25T09:13:04.541Z,9.08
2023-03-25T09:17:07.311Z,9.14
2023-03-25T09:21:10.178Z,9.28
2023-03-25T09:25:14.005Z,9.48
2023-03-25T09:29:18.094Z,9.68
2023-03-25T09:33:20.887Z,9.81
2023-03-25T09:37:23.750Z,9.92
2023-03-25T09:41:42.080Z,10.01
2023-03-25T09:45:48.181Z,10.06
2023-03-25T09:49:54.469Z,9.99
2023-03-25T09:54:04.301Z,10.01
2023-03-25T09:58:24.927Z,10.12
2023-03-25T10:02:38.704Z,10.23
2023-03-25T10:06:46.829Z,10.35
2023-03-25T10:10:56.579Z,10.37
2023-03-25T10:15:09.175Z,10.38
2023-03-25T10:19:32.156Z,10.30
2023-03-25T10:23:39.067Z,10.18
2023-03-25T10:27:45.406Z,10.00
2023-03-25T10:31:53.244Z,9.69
2023-03-25T10:35:59.419Z,9.44
2023-03-25T10:40:16.582Z,9.26
2023-03-25T10:44:19.856Z,9.19
2023-03-25T10:48:25.569Z,9.17
2023-03-25T10:52:29.678Z,9.17
2023-03-25T10:56:36.159Z,9.31
2023-03-25T11:00:40.536Z,9.29
2023-03-25T11:04:45.702Z,9.26
2023-03-25T11:09:12.272Z,9.24
2023-03-25T11:13:17.239Z,9.19
2023-03-25T11:17:21.702Z,9.12
2023-03-25T11:21:24.840Z,9.04
2023-03-25T11:25:32.571Z,8.96
2023-03-25T11:29:37.300Z,8.90
2023-03-25T11:33:42.105Z,8.87
2023-03-25T11:37:49.861Z,8.90
2023-03-25T11:41:54.133Z,9.05
2023-03-25T11:45:57.014Z,9.08
2023-03-25T11:50:00.524Z,9.11
2023-03-25T11:54:07.279Z,9.40
2023-03-25T11:58:17.372Z,9.64
2023-03-25T12:02:24.692Z,9.83
2023-03-25T12:06:28.189Z,10.28
2023-03-25T12:10:44.733Z,10.80
2023-03-25T12:14:55.404Z,10.92
2023-03-25T12:19:11.763Z,10.79
2023-03-25T12:23:25.552Z,10.45
2023-03-25T12:27:41.170Z,10.11
2023-03-25T12:32:01.399Z,9.73
2023-03-25T12:36:20.579Z,9.27
2023-03-25T12:40:40.250Z,9.13
2023-03-25T12:44:57.353Z,9.25
2023-03-25T12:49:16.345Z,9.56
2023-03-25T12:53:32.870Z,10.00
2023-03-25T12:57:48.611Z,10.41
2023-03-25T13:02:04.246Z,10.99
2023-03-25T13:06:19.069Z,11.63
2023-03-25T13:10:23.816Z,11.83
2023-03-25T13:14:31.216Z,11.68
2023-03-25T13:18:41.344Z,11.26
2023-03-25T13:22:50.217Z,10.78
2023-03-25T13:26:55.597Z,10.46
2023-03-25T13:30:59.280Z,10.33
2023-03-25T13:35:07.667Z,10.39
2023-03-25T13:39:17.173Z,10.53
2023-03-25T13:43:28.893Z,10.65
2023-03-25T13:47:37.863Z,10.83
2023-03-25T13:51:40.584Z,10.82
2023-03-25T13:55:49.452Z,10.75
2023-03-25T14:00:25.464Z,10.73
2023-03-25T14:04:59.598Z,10.62
2023-03-25T14:09:28.782Z,10.58
2023-03-25T14:13:38.613Z,10.87
2023-03-25T14:17:45.427Z,11.02
2023-03-25T14:21:50.017Z,11.02
2023-03-25T14:25:55.862Z,11.11
2023-03-25T14:30:02.896Z,11.15
2023-03-25T14:34:26.154Z,11.39
2023-03-25T14:38:58.360Z,11.66
2023-03-25T14:43:01.271Z,11.79
2023-03-25T14:47:31.891Z,11.82
2023-03-25T14:51:45.604Z,11.79
2023-03-25T14:55:48.928Z,11.83
2023-03-25T14:59:56.109Z,11.75
2023-03-25T15:04:14.748Z,11.77
2023-03-25T15:08:22.194Z,11.93
2023-03-25T15:12:26.864Z,12.01
2023-03-25T15:16:34.670Z,12.06
2023-03-25T15:20:39.404Z,12.01
2023-03-25T15:30:52.702Z,11.79
2023-03-25T15:35:35.664Z,11.24
2023-03-25T15:39:54.592Z,10.62
2023-03-25T15:44:24.669Z,10.34
2023-03-25T15:49:09.431Z,10.16
2023-03-25T15:53:44.658Z,10.08
2023-03-25T15:57:51.362Z,10.00
2023-03-25T16:01:55.648Z,9.97
2023-03-25T16:06:04.444Z,9.94
2023-03-25T16:10:16.690Z,9.91
2023-03-25T16:14:23.216Z,9.93
2023-03-25T16:18:26.757Z,9.92
2023-03-25T16:22:34.632Z,9.88
2023-03-25T16:26:40.514Z,9.67
2023-03-25T16:30:44.868Z,9.20
2023-03-25T16:34:48.116Z,8.89
2023-03-25T16:38:52.372Z,8.82
2023-03-25T16:42:56.051Z,8.82
2023-03-25T16:47:00.719Z,8.78
2023-03-25T16:51:13.776Z,8.70
2023-03-25T16:55:31.919Z,8.62
2023-03-25T16:59:37.087Z,8.58
2023-03-25T17:03:42.978Z,8.61
2023-03-25T17:07:48.334Z,8.59
2023-03-25T17:11:56.803Z,8.53
2023-03-25T17:16:00.112Z,8.52
2023-03-25T17:20:08.341Z,8.47
2023-03-25T17:24:24.070Z,8.50
2023-03-25T17:28:34.226Z,8.55
2023-03-25T17:32:43.682Z,8.55
2023-03-25T17:36:48.443Z,8.53
2023-03-25T17:40:59.885Z,8.52
2023-03-25T17:45:04.091Z,8.54
2023-03-25T17:49:15.569Z,8.57
2023-03-25T17:53:18.927Z,8.61
2023-03-25T17:57:21.659Z,8.65
2023-03-25T18:01:27.319Z,8.66
2023-03-25T18:05:30.229Z,8.68
2023-03-25T18:09:33.425Z,8.69
2023-03-25T18:13:36.410Z,8.71
2023-03-25T18:17:40.590Z,8.71
2023-03-25T18:21:43.859Z,8.72
2023-03-25T18:25:46.630Z,8.68
2023-03-25T18:29:49.385Z,8.65
2023-03-25T18:33:54.145Z,8.59
2023-03-25T18:37:57.340Z,8.53
2023-03-25T18:42:00.037Z,8.53
2023-03-25T18:46:03.389Z,8.51
2023-03-25T18:50:18.438Z,8.51
2023-03-25T18:54:21.183Z,8.51
2023-03-25T18:58:26.210Z,8.49
2023-03-25T19:02:29.038Z,8.48
2023-03-25T19:06:34.037Z,8.43
2023-03-25T19:10:36.983Z,8.37
2023-03-25T19:14:39.686Z,8.33
2023-03-25T19:18:42.441Z,8.29
2023-03-25T19:22:47.110Z,8.28
2023-03-25T19:26:49.802Z,8.26
2023-03-25T19:30:54.455Z,8.29
2023-03-25T19:34:58.058Z,8.28
2023-03-25T19:39:05.643Z,8.32
2023-03-25T19:43:08.551Z,8.36
2023-03-25T19:47:11.721Z,8.37
2023-03-25T19:51:14.561Z,8.34
2023-03-25T19:55:20.115Z,8.32
2023-03-25T19:59:23.297Z,8.37
2023-03-25T20:03:26.840Z,8.37
2023-03-25T20:07:29.762Z,8.38
2023-03-25T20:11:34.684Z,8.40
2023-03-25T20:15:37.426Z,8.44
2023-03-25T20:19:40.434Z,8.46
2023-03-25T20:23:43.113Z,8.46
2023-03-25T20:27:47.374Z,8.48
2023-03-25T20:31:50.219Z,8.50
2023-03-25T20:35:53.387Z,8.51
2023-03-25T20:39:56.393Z,8.54
2023-03-25T20:44:00.856Z,8.55
2023-03-25T20:48:04.786Z,8.57
2023-03-25T20:52:09.662Z,8.59
2023-03-25T20:56:12.538Z,8.62
2023-03-25T21:00:18.375Z,8.55
2023-03-25T21:04:21.275Z,8.53
2023-03-25T21:08:25.848Z,8.52
2023-03-25T21:12:40.480Z,8.52
2023-03-25T21:16:47.661Z,8.51
2023-03-25T21:20:51.244Z,8.51
2023-03-25T21:24:54.032Z,8.51
2023-03-25T21:28:57.832Z,8.51
2023-03-25T21:33:02.000Z,8.47
2023-03-25T21:37:04.769Z,8.48
2023-03-25T21:41:09.137Z,8.52
2023-03-25T21:45:15.356Z,8.49
2023-03-25T21:49:22.279Z,8.52
2023-03-25T21:53:31.249Z,8.49
2023-03-25T21:57:38.993Z,8.52
2023-03-25T22:01:42.518Z,8.47
2023-03-25T22:05:46.731Z,8.50
2023-03-25T22:09:49.450Z,8.51
2023-03-25T22:13:52.907Z,8.51
2023-03-25T22:17:55.915Z,8.52
2023-03-25T22:22:00.091Z,8.52
2023-03-25T22:26:03.130Z,8.56
2023-03-25T22:30:08.918Z,8.54
2023-03-25T22:34:14.970Z,8.54
2023-03-25T22:38:21.279Z,8.57
2023-03-25T22:42:25.692Z,8.56
2023-03-25T22:46:28.717Z,8.58
2023-03-25T22:50:31.627Z,8.57
2023-03-25T22:54:36.072Z,8.61
2023-03-25T22:58:39.437Z,8.63
2023-03-25T23:02:42.550Z,8.62
2023-03-25T23:06:53.915Z,8.63
2023-03-25T23:11:11.338Z,8.58
2023-03-25T23:15:14.165Z,8.55
2023-03-25T23:19:17.005Z,8.52
2023-03-25T23:23:22.264Z,8.44
2023-03-25T23:27:28.653Z,8.37
2023-03-25T23:31:34.342Z,8.33
2023-03-25T23:35:37.263Z,8.27
2023-03-25T23:39:41.932Z,8.27
2023-03-25T23:43:46.685Z,8.23
2023-03-25T23:47:49.462Z,8.25
2023-03-25T23:51:52.312Z,8.23
2023-03-25T23:55:56.466Z,8.19
